createdAt,value
2022-08-12T00:00:42.393Z,5.55
2022-08-12T00:03:29.046Z,6.80
2022-08-12T00:06:14.673Z,5.40
2022-08-12T00:08:59.544Z,5.38
2022-08-12T00:11:45.570Z,5.68
2022-08-12T00:14:30.452Z,6.65
2022-08-12T00:17:15.882Z,5.07
2022-08-12T00:20:02.439Z,5.70
2022-08-12T00:22:58.599Z,5.97
2022-08-12T00:26:21.101Z,6.00
2022-08-12T00:28:59.231Z,7.68
2022-08-12T00:31:44.339Z,5.63
2022-08-12T00:34:31.544Z,6.13
2022-08-12T00:37:19.054Z,7.32
2022-08-12T00:40:10.970Z,6.40
2022-08-12T00:42:40.025Z,5.95
2022-08-12T00:45:08.371Z,5.57
2022-08-12T00:47:36.351Z,6.90
2022-08-12T00:50:04.721Z,5.50
2022-08-12T00:52:34.219Z,7.43
2022-08-12T00:55:02.443Z,6.18
2022-08-12T00:57:32.178Z,5.88
2022-08-12T01:00:00.536Z,5.77
2022-08-12T01:02:29.637Z,7.03
2022-08-12T01:05:15.594Z,6.32
2022-08-12T01:08:02.169Z,6.70
2022-08-12T01:11:03.914Z,6.60
2022-08-12T01:13:32.227Z,6.63
2022-08-12T01:16:01.261Z,6.78
2022-08-12T01:18:29.590Z,6.38
2022-08-12T01:21:01.323Z,8.07
2022-08-12T01:23:46.866Z,6.88
2022-08-12T01:26:18.060Z,7.37
2022-08-12T01:28:46.401Z,7.53
2022-08-12T01:31:16.496Z,6.53
2022-08-12T01:33:46.810Z,7.32
2022-08-12T01:36:15.094Z,6.60
2022-08-12T01:38:43.807Z,8.57
2022-08-12T01:41:12.480Z,6.75
2022-08-12T01:43:41.449Z,7.47
2022-08-12T01:46:11.103Z,5.70
2022-08-12T01:48:52.072Z,7.55
2022-08-12T01:52:15.962Z,6.60
2022-08-12T01:54:15.037Z,11.63
2022-08-12T01:56:49.078Z,11.00
2022-08-12T01:59:37.984Z,11.05
2022-08-12T02:02:07.548Z,12.38
2022-08-12T02:04:55.719Z,9.70
2022-08-12T02:07:46.253Z,11.32
2022-08-12T02:10:49.185Z,11.80
2022-08-12T02:13:33.243Z,12.13
2022-08-12T02:16:15.193Z,12.70
2022-08-12T02:18:47.722Z,11.67
2022-08-12T02:21:21.190Z,11.35
2022-08-12T02:23:49.286Z,12.00
2022-08-12T02:26:17.994Z,13.18
2022-08-12T02:28:46.471Z,11.27
2022-08-12T02:31:15.923Z,13.10
2022-08-12T02:33:44.115Z,11.00
2022-08-12T02:36:11.767Z,11.68
2022-08-12T02:38:42.904Z,12.38
2022-08-12T02:41:12.441Z,12.30
2022-08-12T02:43:41.516Z,11.67
2022-08-12T02:46:14.436Z,12.60
2022-08-12T02:48:47.271Z,13.73
2022-08-12T02:51:17.400Z,14.13
2022-08-12T02:53:46.104Z,13.95
2022-08-12T02:56:33.262Z,11.07
2022-08-12T02:59:01.211Z,12.18
2022-08-12T03:01:33.925Z,10.93
2022-08-12T03:04:05.440Z,12.50
2022-08-12T03:06:35.161Z,12.32
2022-08-12T03:09:03.941Z,12.50
2022-08-12T03:11:42.714Z,13.57
2022-08-12T03:14:12.031Z,13.30
2022-08-12T03:16:40.269Z,14.82
2022-08-12T03:19:09.724Z,13.63
2022-08-12T03:21:52.972Z,13.70
2022-08-12T03:24:27.378Z,14.85
2022-08-12T03:27:00.282Z,16.98
2022-08-12T03:29:32.846Z,15.00
2022-08-12T03:32:36.285Z,14.57
2022-08-12T03:35:07.374Z,17.63
2022-08-12T03:37:35.692Z,16.77
2022-08-12T03:40:03.354Z,16.90
2022-08-12T03:42:33.245Z,16.67
2022-08-12T03:45:38.460Z,16.40
2022-08-12T03:48:37.329Z,17.63
2022-08-12T03:51:24.193Z,18.67
2022-08-12T03:54:11.283Z,19.15
2022-08-12T03:56:57.057Z,17.33
2022-08-12T03:59:41.976Z,18.73
2022-08-12T04:02:14.511Z,17.30
2022-08-12T04:04:45.439Z,18.23
2022-08-12T04:07:16.280Z,19.80
2022-08-12T04:09:44.466Z,19.38
2022-08-12T04:12:32.708Z,17.02
2022-08-12T04:15:01.054Z,20.00
2022-08-12T04:17:28.933Z,20.08
2022-08-12T04:19:57.318Z,18.67
2022-08-12T04:22:30.506Z,20.02
2022-08-12T04:25:01.065Z,18.52
2022-08-12T04:27:31.720Z,21.50
2022-08-12T04:30:20.998Z,21.08
2022-08-12T04:32:49.825Z,20.70
2022-08-12T04:35:17.916Z,19.92
2022-08-12T04:37:58.363Z,18.00
2022-08-12T04:40:29.206Z,16.93
2022-08-12T04:42:56.925Z,16.40
2022-08-12T04:45:24.943Z,15.18
2022-08-12T04:47:52.848Z,16.05
2022-08-12T04:50:34.435Z,15.25
2022-08-12T04:53:05.526Z,15.87
2022-08-12T04:55:34.825Z,14.32
2022-08-12T04:58:02.682Z,17.48
2022-08-12T05:00:30.262Z,15.15
2022-08-12T05:02:58.018Z,14.60
2022-08-12T05:05:25.632Z,15.40
2022-08-12T05:07:54.981Z,12.95
2022-08-12T05:10:33.788Z,12.20
2022-08-12T05:13:05.933Z,12.80
2022-08-12T05:15:36.048Z,11.93
2022-08-12T05:18:19.217Z,11.70
2022-08-12T05:20:48.376Z,11.07
2022-08-12T05:23:16.905Z,10.23
2022-08-12T05:25:46.382Z,10.82
2022-08-12T05:28:14.329Z,9.45
2022-08-12T05:30:42.645Z,8.53
2022-08-12T05:33:11.141Z,9.00
2022-08-12T05:35:41.635Z,7.75
2022-08-12T05:38:23.184Z,7.10
2022-08-12T05:40:52.292Z,7.75
2022-08-12T05:43:19.996Z,4.97
2022-08-12T05:45:47.981Z,7.47
2022-08-12T05:48:15.631Z,6.22
2022-08-12T05:50:43.836Z,5.65
2022-08-12T05:53:11.453Z,7.88
2022-08-12T05:55:40.186Z,7.07
2022-08-12T05:58:09.106Z,7.38
2022-08-12T06:00:38.001Z,7.25
2022-08-12T06:03:06.862Z,7.25
2022-08-12T06:05:54.116Z,6.57
2022-08-12T06:08:22.900Z,7.00
2022-08-12T06:10:50.792Z,6.00
2022-08-12T06:13:28.572Z,6.47
2022-08-12T06:16:08.453Z,5.70
2022-08-12T06:18:39.978Z,6.03
2022-08-12T06:21:07.869Z,7.50
2022-08-12T06:23:40.553Z,6.60
2022-08-12T06:26:12.575Z,6.07
2022-08-12T06:28:41.641Z,5.00
2022-08-12T06:35:22.523Z,5.77
2022-08-12T06:36:44.721Z,6.70
2022-08-12T06:39:14.518Z,5.75
2022-08-12T06:42:10.783Z,5.80
2022-08-12T06:44:50.417Z,6.05
2022-08-12T06:47:19.851Z,6.43
2022-08-12T06:49:49.484Z,6.07
2022-08-12T06:52:17.209Z,6.15
2022-08-12T06:54:45.940Z,5.63
2022-08-12T06:58:06.808Z,5.20
2022-08-12T07:00:02.618Z,4.40
2022-08-12T07:02:34.911Z,4.63
2022-08-12T07:05:04.477Z,5.15
2022-08-12T07:07:32.061Z,5.80
2022-08-12T07:10:07.536Z,5.17
2022-08-12T07:12:36.048Z,4.85
2022-08-12T07:15:05.235Z,5.72
2022-08-12T07:17:36.575Z,5.60
2022-08-12T07:20:05.652Z,4.95
2022-08-12T07:22:34.060Z,4.53
2022-08-12T07:25:19.249Z,5.15
2022-08-12T07:27:46.835Z,6.00
2022-08-12T07:30:15.863Z,5.03
2022-08-12T07:32:49.774Z,5.55
2022-08-12T07:35:19.551Z,5.63
2022-08-12T07:37:50.396Z,4.53
2022-08-12T07:40:18.782Z,6.38
2022-08-12T07:42:46.537Z,5.35
2022-08-12T07:45:14.237Z,4.93
2022-08-12T07:47:43.823Z,4.37
2022-08-12T07:50:11.784Z,4.38
2022-08-12T07:52:41.457Z,4.93
2022-08-12T07:55:10.231Z,5.05
2022-08-12T07:57:48.978Z,4.38
2022-08-12T08:00:18.347Z,5.00
2022-08-12T08:02:47.349Z,4.63
2022-08-12T08:05:16.200Z,4.82
2022-08-12T08:07:44.025Z,4.35
2022-08-12T08:10:12.513Z,5.78
2022-08-12T08:12:54.243Z,3.97
2022-08-12T08:15:38.517Z,4.05
2022-08-12T08:18:25.889Z,4.05
2022-08-12T08:20:54.632Z,3.80
2022-08-12T08:23:22.230Z,4.20
2022-08-12T08:25:57.049Z,4.00
2022-08-12T08:28:24.627Z,5.78
2022-08-12T08:30:53.621Z,4.57
2022-08-12T08:34:05.328Z,5.28
2022-08-12T08:36:16.314Z,4.13
2022-08-12T08:38:53.223Z,4.13
2022-08-12T08:42:17.517Z,4.05
2022-08-12T08:44:30.379Z,5.88
2022-08-12T08:46:58.027Z,4.47
2022-08-12T08:49:27.078Z,4.53
2022-08-12T08:51:54.686Z,4.73
2022-08-12T08:54:23.731Z,4.07
2022-08-12T08:56:52.332Z,4.65
2022-08-12T08:59:20.292Z,4.93
2022-08-12T09:01:48.383Z,5.22
2022-08-12T09:05:08.069Z,5.25
2022-08-12T09:10:02.615Z,5.57
2022-08-12T09:12:54.855Z,4.55
2022-08-12T09:15:35.615Z,5.72
2022-08-12T09:18:05.712Z,4.43
2022-08-12T09:20:37.069Z,4.50
2022-08-12T09:26:04.333Z,6.38
2022-08-12T09:28:33.015Z,4.93
2022-08-12T09:31:00.956Z,4.93
2022-08-12T09:34:28.680Z,5.20
2022-08-12T09:36:31.176Z,4.45
2022-08-12T09:40:05.442Z,4.43
2022-08-12T09:42:38.675Z,4.40
2022-08-12T09:45:19.094Z,4.30
2022-08-12T09:47:59.866Z,4.53
2022-08-12T09:50:27.794Z,4.72
2022-08-12T09:53:05.390Z,4.65
2022-08-12T09:56:03.818Z,4.85
2022-08-12T09:58:57.008Z,7.32
2022-08-12T10:01:23.441Z,4.80
2022-08-12T10:04:03.039Z,4.50
2022-08-12T10:06:36.751Z,5.85
2022-08-12T10:09:16.254Z,4.80
2022-08-12T10:12:12.201Z,4.90
2022-08-12T10:14:50.040Z,5.30
2022-08-12T10:17:22.879Z,4.60
2022-08-12T10:19:53.125Z,4.75
2022-08-12T10:22:39.307Z,4.72
2022-08-12T10:26:10.026Z,5.45
2022-08-12T10:28:32.304Z,4.53
2022-08-12T10:31:01.464Z,4.30
2022-08-12T10:33:31.064Z,8.65
2022-08-12T10:36:00.391Z,5.32
2022-08-12T10:38:36.300Z,5.13
2022-08-12T10:41:57.254Z,4.70
2022-08-12T10:44:17.310Z,5.10
2022-08-12T10:46:49.168Z,4.32
2022-08-12T10:50:07.045Z,5.43
2022-08-12T10:52:32.908Z,4.70
2022-08-12T10:54:55.884Z,5.13
2022-08-12T10:58:15.794Z,5.22
2022-08-12T11:00:34.280Z,5.88
2022-08-12T11:04:26.007Z,5.82
2022-08-12T11:07:05.358Z,5.17
2022-08-12T11:08:42.960Z,4.70
2022-08-12T11:11:17.934Z,6.88
2022-08-12T11:14:05.213Z,5.10
2022-08-12T11:16:34.118Z,5.75
2022-08-12T11:19:05.449Z,5.45
2022-08-12T11:21:56.666Z,5.55
2022-08-12T11:24:32.057Z,5.60
2022-08-12T11:27:01.795Z,6.43
2022-08-12T11:30:02.515Z,6.85
2022-08-12T11:32:25.384Z,5.27
2022-08-12T11:34:55.074Z,5.20
2022-08-12T11:37:26.201Z,5.63
2022-08-12T11:42:34.494Z,6.28
2022-08-12T11:45:02.552Z,4.60
2022-08-12T11:47:31.484Z,5.57
2022-08-12T11:49:59.075Z,4.80
2022-08-12T11:52:54.830Z,5.95
2022-08-12T11:55:14.814Z,7.15
2022-08-12T11:58:40.575Z,4.27
2022-08-12T12:03:43.807Z,4.60
2022-08-12T12:06:17.263Z,5.00
2022-08-12T12:08:50.603Z,5.38
2022-08-12T12:11:19.045Z,5.43
2022-08-12T12:14:07.657Z,5.15
2022-08-12T12:16:38.205Z,5.03
2022-08-12T12:19:10.197Z,5.00
2022-08-12T12:21:47.172Z,10.23
2022-08-12T12:24:21.539Z,5.40
2022-08-12T12:27:00.894Z,4.10
2022-08-12T12:30:19.772Z,5.10
2022-08-12T12:32:16.724Z,4.03
2022-08-12T12:35:18.413Z,4.80
2022-08-12T12:38:05.421Z,5.25
2022-08-12T12:40:30.039Z,4.72
2022-08-12T12:43:00.389Z,4.55
2022-08-12T12:45:32.506Z,5.35
2022-08-12T12:48:01.963Z,4.20
2022-08-12T12:50:35.497Z,5.60
2022-08-12T12:53:08.958Z,7.60
2022-08-12T12:55:56.517Z,4.20
2022-08-12T12:58:25.770Z,4.85
2022-08-12T13:00:55.240Z,5.60
2022-08-12T13:03:23.362Z,5.38
2022-08-12T13:05:53.896Z,4.25
2022-08-12T13:08:28.580Z,5.07
2022-08-12T13:11:04.497Z,5.90
2022-08-12T13:14:09.118Z,4.97
2022-08-12T13:16:20.884Z,5.03
2022-08-12T13:18:48.838Z,4.43
2022-08-12T13:21:33.664Z,4.88
2022-08-12T13:24:09.741Z,4.15
2022-08-12T13:26:37.908Z,4.65
2022-08-12T13:29:05.625Z,4.53
2022-08-12T13:31:46.603Z,5.60
2022-08-12T13:34:33.360Z,5.00
2022-08-12T13:37:08.997Z,4.50
2022-08-12T13:39:37.399Z,4.10
2022-08-12T13:42:14.605Z,5.50
2022-08-12T13:44:42.516Z,4.63
2022-08-12T13:47:18.462Z,4.63
2022-08-12T13:49:54.558Z,4.05
2022-08-12T13:52:25.712Z,6.20
2022-08-12T13:54:56.330Z,3.75
2022-08-12T13:57:25.589Z,4.63
2022-08-12T13:59:55.681Z,6.60
2022-08-12T14:02:28.532Z,4.18
2022-08-12T14:04:57.070Z,5.30
2022-08-12T14:07:27.455Z,4.57
2022-08-12T14:10:16.278Z,4.97
2022-08-12T14:12:54.544Z,5.70
2022-08-12T14:15:36.587Z,16.03
2022-08-12T14:18:22.632Z,4.30
2022-08-12T14:20:51.402Z,4.93
2022-08-12T14:24:05.797Z,4.15
2022-08-12T14:26:11.753Z,4.53
2022-08-12T14:28:45.259Z,3.60
2022-08-12T14:31:31.590Z,4.53
2022-08-12T14:33:59.824Z,4.85
2022-08-12T14:36:27.416Z,5.47
2022-08-12T14:38:56.450Z,4.47
2022-08-12T14:41:37.086Z,5.72
2022-08-12T14:44:58.849Z,3.97
2022-08-12T14:47:00.697Z,4.93
2022-08-12T14:50:34.082Z,4.97
2022-08-12T14:53:11.528Z,4.65
2022-08-12T14:58:03.466Z,6.55
2022-08-12T15:00:52.170Z,5.27
2022-08-12T15:03:23.268Z,4.72
2022-08-12T15:06:06.150Z,4.32
2022-08-12T15:08:39.900Z,5.88
2022-08-12T15:11:13.547Z,4.90
2022-08-12T15:13:42.520Z,5.60
2022-08-12T15:16:10.612Z,4.82
2022-08-12T15:18:38.356Z,4.22
2022-08-12T15:21:11.448Z,6.03
2022-08-12T15:23:45.502Z,4.90
2022-08-12T15:26:28.596Z,4.30
2022-08-12T15:28:58.836Z,4.50
2022-08-12T15:31:28.152Z,4.30
2022-08-12T15:34:13.969Z,4.20
2022-08-12T15:36:55.006Z,5.03
2022-08-12T15:39:23.257Z,5.10
2022-08-12T15:41:55.531Z,4.97
2022-08-12T15:44:38.022Z,4.57
2022-08-12T15:47:09.428Z,5.20
2022-08-12T15:49:54.890Z,6.18
2022-08-12T15:52:27.271Z,4.17
2022-08-12T15:54:58.837Z,4.70
2022-08-12T15:57:27.948Z,6.43
2022-08-12T16:00:07.574Z,6.18
2022-08-12T16:02:50.325Z,7.82
2022-08-12T16:06:12.496Z,7.37
2022-08-12T16:08:10.550Z,5.20
2022-08-12T16:10:44.796Z,6.63
2022-08-12T16:13:15.194Z,4.60
2022-08-12T16:15:50.917Z,6.57
2022-08-12T16:18:29.774Z,4.47
2022-08-12T16:20:58.299Z,5.30
2022-08-12T16:23:51.365Z,4.60
2022-08-12T16:26:14.199Z,4.93
2022-08-12T16:28:47.361Z,5.68
2022-08-12T16:31:23.442Z,6.03
2022-08-12T16:33:59.763Z,7.05
2022-08-12T16:36:28.867Z,6.82
2022-08-12T16:38:56.526Z,4.30
2022-08-12T16:41:24.153Z,6.47
2022-08-12T16:43:53.598Z,10.20
2022-08-12T16:46:33.581Z,7.05
2022-08-12T16:49:09.017Z,6.05
2022-08-12T16:51:46.645Z,3.88
2022-08-12T16:54:16.652Z,6.30
2022-08-12T16:56:55.554Z,4.60
2022-08-12T16:59:52.783Z,6.30
2022-08-12T17:02:31.755Z,8.02
2022-08-12T17:05:04.806Z,4.25
2022-08-12T17:07:36.519Z,4.45
2022-08-12T17:10:06.513Z,5.70
2022-08-12T17:12:37.556Z,5.13
2022-08-12T17:15:50.904Z,5.68
2022-08-12T17:18:39.749Z,6.03
2022-08-12T17:20:46.708Z,4.25
2022-08-12T17:23:15.478Z,6.67
2022-08-12T17:25:45.229Z,6.30
2022-08-12T17:28:16.796Z,4.97
2022-08-12T17:30:45.963Z,7.05
2022-08-12T17:33:25.335Z,5.65
2022-08-12T17:35:53.441Z,7.17
2022-08-12T17:38:21.259Z,7.97
2022-08-12T17:40:49.009Z,5.68
2022-08-12T17:43:56.159Z,6.13
2022-08-12T17:46:12.892Z,5.28
2022-08-12T17:48:55.064Z,6.60
2022-08-12T17:51:24.401Z,5.65
2022-08-12T17:54:10.514Z,4.90
2022-08-12T17:56:43.139Z,6.97
2022-08-12T17:59:12.250Z,6.93
2022-08-12T18:01:45.064Z,7.60
2022-08-12T18:04:22.905Z,5.60
2022-08-12T18:06:51.433Z,5.82
2022-08-12T18:09:19.745Z,5.75
2022-08-12T18:12:07.975Z,5.30
2022-08-12T18:14:37.205Z,5.63
2022-08-12T18:17:08.717Z,7.75
2022-08-12T18:20:05.626Z,8.05
2022-08-12T18:22:39.464Z,5.75
2022-08-12T18:25:37.803Z,5.88
2022-08-12T18:28:16.095Z,7.33
2022-08-12T18:30:45.179Z,5.75
2022-08-12T18:33:25.047Z,5.40
2022-08-12T18:35:55.349Z,8.38
2022-08-12T18:38:24.882Z,6.38
2022-08-12T18:41:11.205Z,5.33
2022-08-12T18:43:58.826Z,8.23
2022-08-12T18:46:30.125Z,7.05
2022-08-12T18:49:18.207Z,4.90
2022-08-12T18:51:55.034Z,7.85
2022-08-12T18:54:25.585Z,4.97
2022-08-12T18:56:53.642Z,7.55
2022-08-12T19:00:00.709Z,6.70
2022-08-12T19:02:20.509Z,6.93
2022-08-12T19:04:53.367Z,5.13
2022-08-12T19:07:22.399Z,6.50
2022-08-12T19:09:59.092Z,7.40
2022-08-12T19:12:57.280Z,5.45
2022-08-12T19:15:25.927Z,6.32
2022-08-12T19:18:00.927Z,5.90
2022-08-12T19:20:32.862Z,4.70
2022-08-12T19:23:08.301Z,5.90
2022-08-12T19:25:59.786Z,11.65
2022-08-12T19:28:34.581Z,7.15
2022-08-12T19:31:45.316Z,6.25
2022-08-12T19:34:37.750Z,5.00
2022-08-12T19:37:14.983Z,6.60
2022-08-12T19:40:10.317Z,5.60
2022-08-12T19:42:30.937Z,9.57
2022-08-12T19:44:59.651Z,6.60
2022-08-12T19:47:28.597Z,7.60
2022-08-12T19:50:06.869Z,5.90
2022-08-12T19:52:41.519Z,9.20
2022-08-12T19:55:11.652Z,6.68
2022-08-12T19:58:01.720Z,8.88
2022-08-12T20:00:30.440Z,6.83
2022-08-12T20:03:00.713Z,7.28
2022-08-12T20:06:05.844Z,6.38
2022-08-12T20:08:33.137Z,9.13
2022-08-12T20:12:12.453Z,7.03
2022-08-12T20:14:00.341Z,7.97
2022-08-12T20:16:51.971Z,6.70
2022-08-12T20:19:16.897Z,8.38
2022-08-12T20:21:44.726Z,9.75
2022-08-12T20:24:14.872Z,9.55
2022-08-12T20:26:43.802Z,9.03
2022-08-12T20:29:12.462Z,9.00
2022-08-12T20:31:41.478Z,8.48
2022-08-12T20:34:12.021Z,10.65
2022-08-12T20:36:44.681Z,8.73
2022-08-12T20:39:33.986Z,9.00
2022-08-12T20:42:07.246Z,9.27
2022-08-12T20:44:36.433Z,6.03
2022-08-12T20:47:16.709Z,8.80
2022-08-12T20:49:55.305Z,6.55
2022-08-12T20:52:29.835Z,8.17
2022-08-12T20:55:15.819Z,11.00
2022-08-12T20:58:02.590Z,6.63
2022-08-12T21:00:32.393Z,8.18
2022-08-12T21:03:20.788Z,8.18
2022-08-12T21:06:12.032Z,6.50
2022-08-12T21:08:40.723Z,9.02
2022-08-12T21:11:10.415Z,8.35
2022-08-12T21:13:41.791Z,8.23
2022-08-12T21:16:10.303Z,14.48
2022-08-12T21:18:38.230Z,6.57
2022-08-12T21:21:06.756Z,8.90
2022-08-12T21:23:50.914Z,9.48
2022-08-12T21:26:20.567Z,8.07
2022-08-12T21:28:58.848Z,10.40
2022-08-12T21:32:39.349Z,9.70
2022-08-12T21:34:18.409Z,7.88
2022-08-12T21:36:49.535Z,6.35
2022-08-12T21:39:21.307Z,10.48
2022-08-12T21:41:52.252Z,8.57
2022-08-12T21:44:24.063Z,7.27
2022-08-12T21:47:19.944Z,7.90
2022-08-12T21:49:55.454Z,8.45
2022-08-12T21:52:28.238Z,7.82
2022-08-12T21:55:02.744Z,8.05
2022-08-12T21:57:36.383Z,9.23
2022-08-12T22:00:23.970Z,7.45
2022-08-12T22:03:30.345Z,11.48
2022-08-12T22:06:31.236Z,6.40
2022-08-12T22:09:11.283Z,9.30
2022-08-12T22:11:56.662Z,9.17
2022-08-12T22:14:29.236Z,7.72
2022-08-12T22:16:57.646Z,6.32
2022-08-12T22:19:26.774Z,6.82
2022-08-12T22:21:55.548Z,9.00
2022-08-12T22:24:26.717Z,6.97
2022-08-12T22:26:58.488Z,7.10
2022-08-12T22:29:43.699Z,10.38
2022-08-12T22:32:13.267Z,10.52
2022-08-12T22:34:44.616Z,8.88
2022-08-12T22:37:19.875Z,8.03
2022-08-12T22:39:49.173Z,6.90
2022-08-12T22:42:34.341Z,5.93
2022-08-12T22:45:23.210Z,7.53
2022-08-12T22:47:55.656Z,6.68
2022-08-12T22:50:27.843Z,6.90
2022-08-12T22:53:14.319Z,8.38
2022-08-12T22:56:00.258Z,7.20
2022-08-12T22:58:31.884Z,6.75
2022-08-12T23:01:02.338Z,8.68
2022-08-12T23:03:48.239Z,7.80
2022-08-12T23:06:18.430Z,7.97
2022-08-12T23:08:47.153Z,6.53
2022-08-12T23:11:16.215Z,8.00
2022-08-12T23:13:45.787Z,7.63
2022-08-12T23:16:18.267Z,7.40
2022-08-12T23:18:59.698Z,8.10
2022-08-12T23:22:03.391Z,9.15
2022-08-12T23:24:17.169Z,8.40
2022-08-12T23:27:03.918Z,8.23
2022-08-12T23:29:43.438Z,7.13
2022-08-12T23:32:35.721Z,6.80
2022-08-12T23:35:06.659Z,7.80
2022-08-12T23:37:47.126Z,6.90
2022-08-12T23:40:22.235Z,8.48
2022-08-12T23:42:50.240Z,7.60
2022-08-12T23:45:20.175Z,9.23
2022-08-12T23:47:58.261Z,8.23
2022-08-12T23:50:33.489Z,8.40
2022-08-12T23:53:03.295Z,7.03
2022-08-12T23:55:34.087Z,8.87
2022-08-12T23:58:22.433Z,7.63
